Date,TemperatureHighF,TemperatureAvgF,TemperatureLowF,DewpointHighF,DewpointAvgF,DewpointLowF,HumidityHigh,HumidityAvg,HumidityLow,PressureMaxIn,PressureMinIn,WindSpeedMaxMPH,WindSpeedAvgMPH,GustSpeedMaxMPH,PrecipitationSumIn
2013-1-1,45,38,26,26,19,8,93,49,25,0.00,40.00,24,12,37,0.00
2013-1-2,53,42,25,14,8,3,62,26,13,0.00,40.00,27,14,42,0.00
2013-1-3,53,46,38,12,6,-1,29,19,14,0.00,40.00,20,8,35,0.00
2013-1-4,57,45,24,11,2,-2,58,19,9,0.00,40.00,16,6,24,0.00
2013-1-5,62,40,19,13,6,-5,67,29,7,0.00,40.00,10,3,14,0.00
2013-1-6,46,36,22,37,28,13,94,73,54,0.00,40.00,10,4,22,0.00
2013-1-7,53,42,34,35,26,17,94,59,25,0.00,40.00,11,4,22,0.00
2013-1-8,68,45,25,29,23,16,77,48,15,0.00,40.00,13,4,21,0.00
2013-1-9,69,50,32,43,31,24,92,52,20,0.00,40.00,12,4,21,0.00
2013-1-10,43,38,30,42,33,27,95,84,63,0.00,40.00,13,6,36,0.00
2013-1-11,40,32,20,28,20,11,91,65,32,0.00,40.00,10,4,20,0.00
2013-1-12,43,32,21,29,18,9,95,63,27,0.00,40.00,9,3,14,0.00
2013-1-13,45,34,20,24,16,7,82,51,28,0.00,40.00,11,4,20,0.00
2013-1-14,42,33,26,15,-1,-11,54,25,10,0.00,40.00,15,8,24,0.00
2013-1-15,47,39,31,13,5,-8,31,24,17,0.00,40.00,23,12,36,0.00
2013-1-16,56,51,44,19,16,12,30,25,21,0.00,40.00,29,14,40,0.00
2013-1-17,62,55,51,14,12,9,22,18,14,0.00,40.00,29,17,41,0.00
2013-1-18,63,56,51,15,13,10,23,18,14,0.00,40.00,18,12,28,0.00
2013-1-19,65,56,44,15,11,7,26,17,13,0.00,40.00,18,9,24,0.00
2013-1-20,66,53,33,12,8,4,39,17,10,0.00,40.00,15,6,22,0.00
2013-1-21,67,53,26,11,4,0,53,17,8,0.00,40.00,16,7,26,0.00
2013-1-22,73,58,40,21,7,-1,34,15,7,0.00,40.00,13,5,20,0.00
2013-1-23,71,58,43,37,29,21,57,33,20,0.00,40.00,11,4,17,0.00
2013-1-24,59,54,50,53,46,36,92,75,52,0.00,40.00,14,3,21,0.00
2013-1-25,57,53,50,51,48,42,96,82,63,0.00,40.00,13,5,20,0.00
2013-1-26,55,51,48,51,49,47,97,94,84,0.00,40.00,10,5,22,0.00
2013-1-27,48,44,37,47,42,34,97,91,83,0.00,40.00,16,7,27,0.00
2013-1-28,44,38,32,35,31,22,92,76,42,0.00,40.00,16,6,27,0.00
2013-1-29,50,40,28,39,33,25,94,77,56,0.00,40.00,10,4,22,0.00
2013-1-30,61,50,32,33,27,22,93,42,26,0.00,40.00,23,10,34,0.00
2013-1-31,63,55,34,29,27,25,73,36,25,0.00,40.00,19,10,31,0.00